OERF

Rafha Domestic Airport

Rafha, Saudi Arabia
TAF OERF 182300Z 1900/2006 22012KT 8000 FEW040 SCT100 TEMPO 1900/1912 5000 BLDU TSRA FEW035CB SCT040
Issued Valid From Valid To
Oct-18 @ 23:00 UTC
(10 hours ago)
Oct-19 @ 00:00 UTC
(9 hours ago)
Oct-20 @ 06:00 UTC
(in 21 hours)
Oct-19 @ 00:00 to Oct-20 @ 06:00
TAF OERF 182300Z 1900/2006 22012KT 8000 FEW040 SCT100
Wind Visibility Clouds
220° at 12 knots 7,998 meters
  • Few at 4,000' AGL
  • Scattered at 10,000' AGL
Temporary Oct-19 @ 00:00 to Oct-19 @ 12:00
TEMPO 1900/1912 5000 BLDU TSRA FEW035CB SCT040
Visibility Clouds Conditions
5,005 meters
  • Few at 3,500' AGL
  • Scattered at 4,000' AGL
  • Blowing
  • Dust
  • Thunderstorm
  • Rain
TAF OERF 182300Z 1900/2006 22012KT 8000 FEW040 SCT100 TEMPO 1900/1912 5000 BLDU TSRA FEW035CB SCT040
Issued Oct-18 @ 23:00 UTC
(10 hours ago)
Valid From Oct-19 @ 00:00 UTC
(9 hours ago)
Valid To Oct-20 @ 06:00 UTC
(in 21 hours)
Oct-19 @ 00:00 - Oct-20 @ 06:00
Wind Visibility
220° at 12 knots 7,998 meters
Clouds
  • Few at 4,000' AGL
  • Scattered at 10,000' AGL
Temporary Oct-19 @ 00:00 - Oct-19 @ 12:00
Clouds
  • Few at 3,500' AGL
  • Scattered at 4,000' AGL
Conditions
  • Blowing
  • Dust
  • Thunderstorm
  • Rain